createdAt,value
2022-10-13T00:01:15.022Z,18.17
2022-10-13T00:03:46.139Z,22.58
2022-10-13T00:06:24.679Z,16.08
2022-10-13T00:08:52.093Z,18.83
2022-10-13T00:11:31.454Z,17.48
2022-10-13T00:14:03.607Z,18.63
2022-10-13T00:16:33.696Z,21.20
2022-10-13T00:19:00.766Z,22.15
2022-10-13T00:21:28.828Z,21.67
2022-10-13T00:23:56.875Z,17.90
2022-10-13T00:26:26.268Z,20.67
2022-10-13T00:28:55.811Z,19.17
2022-10-13T00:31:30.008Z,19.80
2022-10-13T00:33:59.829Z,19.85
2022-10-13T00:36:27.232Z,19.92
2022-10-13T00:38:56.174Z,20.00
2022-10-13T00:41:23.336Z,16.33
2022-10-13T00:43:55.181Z,18.85
2022-10-13T00:46:25.234Z,20.15
2022-10-13T00:51:34.126Z,18.58
2022-10-13T00:54:05.848Z,18.92
2022-10-13T00:56:36.967Z,16.63
2022-10-13T00:59:11.195Z,19.98
2022-10-13T01:01:40.053Z,17.33
2022-10-13T01:04:07.108Z,16.20
2022-10-13T01:06:34.531Z,15.27
2022-10-13T01:09:01.592Z,25.85
2022-10-13T01:11:56.584Z,22.88
2022-10-13T01:14:45.208Z,15.15
2022-10-13T01:17:41.903Z,16.98
2022-10-13T01:20:36.771Z,16.50
2022-10-13T01:24:08.999Z,17.42
2022-10-13T01:27:01.207Z,17.17
2022-10-13T01:32:38.371Z,20.35
2022-10-13T01:35:20.443Z,17.40
2022-10-13T01:38:04.437Z,19.20
2022-10-13T01:41:02.236Z,17.13
2022-10-13T01:43:42.879Z,16.67
2022-10-13T01:46:29.382Z,19.38
2022-10-13T01:49:02.039Z,20.45
2022-10-13T01:51:31.508Z,20.85
2022-10-13T01:53:58.986Z,20.25
2022-10-13T01:56:26.336Z,19.25
2022-10-13T01:58:59.540Z,18.55
2022-10-13T02:01:41.027Z,15.02
2022-10-13T02:04:48.740Z,18.48
2022-10-13T02:07:19.687Z,17.98
2022-10-13T02:10:02.589Z,17.25
2022-10-13T02:13:04.770Z,22.52
2022-10-13T02:15:40.614Z,15.40
2022-10-13T02:18:12.219Z,15.23
2022-10-13T02:20:42.330Z,15.93
2022-10-13T02:23:18.448Z,20.65
2022-10-13T02:25:47.554Z,18.77
2022-10-13T02:28:16.060Z,15.70
2022-10-13T02:30:46.512Z,16.73
2022-10-13T02:33:15.458Z,14.68
2022-10-13T02:35:43.230Z,17.77
2022-10-13T02:38:12.518Z,16.75
2022-10-13T02:40:39.676Z,18.70
2022-10-13T02:43:06.976Z,18.73
2022-10-13T02:45:34.471Z,18.25
2022-10-13T02:48:01.458Z,14.57
2022-10-13T02:50:29.546Z,19.73
2022-10-13T02:52:56.850Z,18.08
2022-10-13T02:55:23.832Z,16.00
2022-10-13T02:57:58.222Z,16.45
2022-10-13T03:00:25.798Z,16.05
2022-10-13T03:02:53.062Z,17.30
2022-10-13T03:05:20.213Z,15.88
2022-10-13T03:07:47.247Z,20.17
2022-10-13T03:14:37.117Z,14.68
2022-10-13T03:17:04.584Z,16.75
2022-10-13T03:19:31.964Z,21.38
2022-10-13T03:21:58.882Z,18.90
2022-10-13T03:24:25.820Z,22.40
2022-10-13T03:26:52.782Z,20.73
2022-10-13T03:29:21.000Z,15.60
2022-10-13T03:31:48.069Z,15.40
2022-10-13T03:34:17.453Z,20.23
2022-10-13T03:36:44.327Z,17.05
2022-10-13T03:39:11.334Z,17.50
2022-10-13T03:41:38.285Z,19.35
2022-10-13T03:44:05.526Z,21.92
2022-10-13T03:46:32.502Z,21.15
2022-10-13T03:48:59.548Z,19.42
2022-10-13T03:51:26.555Z,20.42
2022-10-13T03:53:53.977Z,19.67
2022-10-13T03:56:25.252Z,18.25
2022-10-13T03:58:55.549Z,16.48
2022-10-13T04:01:25.964Z,13.57
2022-10-13T04:03:55.711Z,19.38
2022-10-13T04:06:26.047Z,19.25
2022-10-13T04:08:54.471Z,21.85
2022-10-13T04:11:22.510Z,14.20
2022-10-13T04:13:58.178Z,15.00
2022-10-13T04:16:29.736Z,17.00
2022-10-13T04:19:04.722Z,18.30
2022-10-13T04:21:35.045Z,21.27
2022-10-13T04:24:03.389Z,17.73
2022-10-13T04:26:34.349Z,19.58
2022-10-13T04:29:09.476Z,18.75
2022-10-13T04:31:37.096Z,18.13
2022-10-13T04:34:05.621Z,24.63
2022-10-13T04:36:32.598Z,21.33
2022-10-13T04:38:59.479Z,18.25
2022-10-13T04:41:27.865Z,23.42
2022-10-13T04:43:55.290Z,20.73
2022-10-13T04:46:26.789Z,22.75
2022-10-13T04:48:57.474Z,22.95
2022-10-13T04:51:29.632Z,17.77
2022-10-13T04:54:01.936Z,21.95
2022-10-13T04:56:29.458Z,17.77
2022-10-13T04:59:05.891Z,18.45
2022-10-13T05:01:33.497Z,25.15
2022-10-13T05:04:03.723Z,19.30
2022-10-13T05:06:58.762Z,23.17
2022-10-13T05:09:27.911Z,23.38
2022-10-13T05:11:55.281Z,17.08
2022-10-13T05:14:23.438Z,18.83
2022-10-13T05:16:50.589Z,17.92
2022-10-13T05:19:17.625Z,20.63
2022-10-13T05:21:44.887Z,19.17
2022-10-13T05:24:13.722Z,14.23
2022-10-13T05:26:42.008Z,14.90
2022-10-13T05:29:09.067Z,18.15
2022-10-13T05:31:36.784Z,18.13
2022-10-13T05:34:03.856Z,20.55
2022-10-13T05:36:34.762Z,20.75
2022-10-13T05:39:10.026Z,20.40
2022-10-13T05:41:39.256Z,25.73
2022-10-13T05:44:13.969Z,21.85
2022-10-13T05:46:53.875Z,18.55
2022-10-13T05:49:20.980Z,21.95
2022-10-13T05:51:55.655Z,20.23
2022-10-13T05:54:30.078Z,20.83
2022-10-13T05:57:12.147Z,20.33
2022-10-13T05:59:49.222Z,22.20
2022-10-13T06:02:20.329Z,20.95
2022-10-13T06:04:53.827Z,22.33
2022-10-13T06:07:21.200Z,23.27
2022-10-13T06:09:49.043Z,22.60
2022-10-13T06:12:23.288Z,19.95
2022-10-13T06:17:17.397Z,22.58
2022-10-13T06:19:45.436Z,25.85
2022-10-13T06:22:12.673Z,23.02
2022-10-13T06:24:39.724Z,24.02
2022-10-13T06:27:10.595Z,21.73
2022-10-13T06:29:38.152Z,21.98
2022-10-13T06:32:06.091Z,27.17
2022-10-13T06:34:33.528Z,25.08
2022-10-13T06:37:00.575Z,26.08
2022-10-13T06:39:27.600Z,26.95
2022-10-13T06:41:55.335Z,27.55
2022-10-13T06:44:33.227Z,23.05
2022-10-13T06:47:03.856Z,23.27
2022-10-13T06:49:31.063Z,22.27
2022-10-13T06:52:00.136Z,25.25
2022-10-13T06:54:27.170Z,24.15
2022-10-13T06:56:55.464Z,20.85
2022-10-13T06:59:22.552Z,22.40
2022-10-13T07:01:51.712Z,21.65
2022-10-13T07:04:22.989Z,19.25
2022-10-13T07:06:50.929Z,23.58
2022-10-13T07:09:18.019Z,24.25
2022-10-13T07:11:50.932Z,25.05
2022-10-13T07:14:17.963Z,24.10
2022-10-13T07:16:45.020Z,19.02
2022-10-13T07:19:12.321Z,19.60
2022-10-13T07:21:41.786Z,24.17
2022-10-13T07:24:11.307Z,19.13
2022-10-13T07:26:38.537Z,28.52
2022-10-13T07:29:08.048Z,26.20
2022-10-13T07:31:38.448Z,24.75
2022-10-13T07:34:06.677Z,18.33
2022-10-13T07:36:33.907Z,20.23
2022-10-13T07:39:03.322Z,20.73
2022-10-13T07:41:31.468Z,21.83
2022-10-13T07:43:58.676Z,23.08
2022-10-13T07:46:25.839Z,21.92
2022-10-13T07:48:54.403Z,22.10
2022-10-13T07:51:23.328Z,21.08
2022-10-13T07:53:50.870Z,20.00
2022-10-13T07:56:18.027Z,24.98
2022-10-13T07:58:48.249Z,18.48
2022-10-13T08:01:16.702Z,20.52
2022-10-13T08:03:49.140Z,21.15
2022-10-13T08:06:18.568Z,22.13
2022-10-13T08:08:46.040Z,22.92
2022-10-13T08:11:17.913Z,21.95
2022-10-13T08:13:50.550Z,18.25
2022-10-13T08:16:23.491Z,29.92
2022-10-13T08:18:50.701Z,19.52
2022-10-13T08:21:52.798Z,27.63
2022-10-13T08:24:15.840Z,31.40
2022-10-13T08:29:28.138Z,21.58
2022-10-13T08:31:55.767Z,26.67
2022-10-13T08:34:24.778Z,25.10
2022-10-13T08:36:56.254Z,21.02
2022-10-13T08:39:25.180Z,25.38
2022-10-13T08:41:54.213Z,27.52
2022-10-13T08:47:49.077Z,24.42
2022-10-13T08:50:23.403Z,24.00
2022-10-13T08:56:11.420Z,18.73
2022-10-13T08:58:43.840Z,24.70
2022-10-13T09:01:10.743Z,26.20
2022-10-13T09:04:31.907Z,24.70
2022-10-13T09:07:27.669Z,24.02
2022-10-13T09:09:56.293Z,19.27
2022-10-13T09:12:25.616Z,24.95
2022-10-13T09:15:09.696Z,20.58
2022-10-13T09:17:41.349Z,22.58
2022-10-13T09:20:22.440Z,19.98
2022-10-13T09:23:23.034Z,21.90
2022-10-13T09:25:52.750Z,21.00
2022-10-13T09:28:28.356Z,27.08
2022-10-13T09:31:24.276Z,18.83
2022-10-13T09:34:13.972Z,23.13
2022-10-13T09:37:06.177Z,21.02
2022-10-13T09:39:34.068Z,19.35
2022-10-13T09:42:25.540Z,20.90
2022-10-13T09:45:01.300Z,20.98
2022-10-13T09:47:33.070Z,22.48
2022-10-13T09:50:19.451Z,20.90
2022-10-13T09:52:48.570Z,18.63
2022-10-13T09:55:35.345Z,21.83
2022-10-13T09:58:30.177Z,23.33
2022-10-13T10:03:33.775Z,18.67
2022-10-13T10:06:06.842Z,26.05
2022-10-13T10:09:05.034Z,21.98
2022-10-13T10:11:43.270Z,21.00
2022-10-13T10:14:25.461Z,17.48
2022-10-13T10:17:23.487Z,22.63
2022-10-13T10:20:41.814Z,17.05
2022-10-13T10:23:29.138Z,18.42
2022-10-13T10:26:32.642Z,20.70
2022-10-13T10:29:28.787Z,18.42
2022-10-13T10:32:19.532Z,17.60
2022-10-13T10:35:04.709Z,17.67
2022-10-13T10:38:00.812Z,17.80
2022-10-13T10:40:58.402Z,18.92
2022-10-13T10:43:51.281Z,18.92
2022-10-13T10:46:34.735Z,16.08
2022-10-13T10:49:15.497Z,18.35
2022-10-13T10:51:43.614Z,17.45
2022-10-13T10:54:21.924Z,17.77
2022-10-13T10:57:08.604Z,16.63
2022-10-13T11:03:33.601Z,18.15
2022-10-13T11:06:06.009Z,19.33
2022-10-13T11:08:46.996Z,17.58
2022-10-13T11:11:26.677Z,18.85
2022-10-13T11:14:06.830Z,17.35
2022-10-13T11:16:58.798Z,17.55
2022-10-13T11:19:33.449Z,19.85
2022-10-13T11:22:00.385Z,18.13
2022-10-13T11:24:39.360Z,21.50
2022-10-13T11:27:11.872Z,22.00
2022-10-13T11:29:49.023Z,18.67
2022-10-13T11:32:25.300Z,20.92
2022-10-13T11:35:12.590Z,17.20
2022-10-13T11:38:06.826Z,18.83
2022-10-13T11:41:04.004Z,17.58
2022-10-13T11:44:04.236Z,22.50
2022-10-13T11:47:02.731Z,21.48
2022-10-13T11:50:21.268Z,19.73
2022-10-13T11:53:23.151Z,17.48
2022-10-13T11:55:55.805Z,21.33
2022-10-13T11:58:25.810Z,27.30
2022-10-13T12:01:04.595Z,24.40
2022-10-13T12:03:41.977Z,23.00
2022-10-13T12:06:35.569Z,24.33
2022-10-13T12:09:19.122Z,22.45
2022-10-13T12:11:47.638Z,22.45
2022-10-13T12:14:24.146Z,24.25
2022-10-13T12:17:00.093Z,24.05
2022-10-13T12:19:31.060Z,20.48
2022-10-13T12:22:01.914Z,29.98
2022-10-13T12:24:31.204Z,24.48
2022-10-13T12:26:59.283Z,26.98
2022-10-13T12:29:34.833Z,27.42
2022-10-13T12:32:06.172Z,21.52
2022-10-13T12:34:35.984Z,26.52
2022-10-13T12:37:21.861Z,39.33
2022-10-13T12:39:49.429Z,30.25
2022-10-13T12:42:18.963Z,28.13
2022-10-13T12:44:46.547Z,23.00
2022-10-13T12:47:44.682Z,22.13
2022-10-13T12:50:29.944Z,14.10
2022-10-13T12:53:12.179Z,20.83
2022-10-13T12:56:03.682Z,21.77
2022-10-13T12:58:35.033Z,16.75
2022-10-13T13:01:14.125Z,17.80
2022-10-13T13:03:43.671Z,19.08
2022-10-13T13:06:26.796Z,22.05
2022-10-13T13:09:26.932Z,33.30
2022-10-13T13:12:13.209Z,19.20
2022-10-13T13:14:49.524Z,19.75
2022-10-13T13:17:45.393Z,23.08
2022-10-13T13:20:32.815Z,38.40
2022-10-13T13:23:00.746Z,18.70
2022-10-13T13:25:28.044Z,18.85
2022-10-13T13:27:55.107Z,17.35
2022-10-13T13:30:24.121Z,20.90
2022-10-13T13:32:51.528Z,16.67
2022-10-13T13:35:18.926Z,28.35
2022-10-13T13:37:52.301Z,21.95
2022-10-13T13:40:27.618Z,20.17
2022-10-13T13:42:55.846Z,19.42
2022-10-13T13:45:26.536Z,16.05
2022-10-13T13:47:59.552Z,17.90
2022-10-13T13:50:34.623Z,19.30
2022-10-13T13:53:04.926Z,17.67
2022-10-13T13:55:32.586Z,21.95
2022-10-13T13:58:00.881Z,18.55
2022-10-13T14:00:27.991Z,18.52
2022-10-13T14:02:57.195Z,20.48
2022-10-13T14:05:24.721Z,20.92
2022-10-13T14:07:55.088Z,22.55
2022-10-13T14:10:22.322Z,23.08
2022-10-13T14:12:49.314Z,21.55
2022-10-13T14:15:17.108Z,20.80
2022-10-13T14:17:44.181Z,19.80
2022-10-13T14:20:11.663Z,19.90
2022-10-13T14:22:39.530Z,20.00
2022-10-13T14:25:07.648Z,17.95
2022-10-13T14:27:35.519Z,21.10
2022-10-13T14:30:09.257Z,18.90
2022-10-13T14:32:39.536Z,19.25
2022-10-13T14:35:08.200Z,20.33
2022-10-13T14:37:35.911Z,18.98
2022-10-13T14:40:03.528Z,16.63
2022-10-13T14:42:31.496Z,23.45
2022-10-13T14:44:58.611Z,17.52
2022-10-13T14:47:25.661Z,18.17
2022-10-13T14:49:52.805Z,19.80
2022-10-13T14:52:19.809Z,21.27
2022-10-13T14:54:48.889Z,24.58
2022-10-13T14:57:16.319Z,24.60
2022-10-13T14:59:43.974Z,20.30
2022-10-13T15:02:12.052Z,18.75
2022-10-13T15:04:42.114Z,22.77
2022-10-13T15:07:09.140Z,25.63
2022-10-13T15:09:52.643Z,21.63
2022-10-13T15:12:25.967Z,18.83
2022-10-13T15:14:52.983Z,20.88
2022-10-13T15:17:20.432Z,19.90
2022-10-13T15:19:47.765Z,21.77
2022-10-13T15:22:14.799Z,21.65
2022-10-13T15:24:43.819Z,23.02
2022-10-13T15:27:14.146Z,19.92
2022-10-13T15:29:41.173Z,18.05
2022-10-13T15:32:18.016Z,17.92
2022-10-13T15:34:49.858Z,17.70
2022-10-13T15:37:16.952Z,22.90
2022-10-13T15:39:43.982Z,18.33
2022-10-13T15:42:11.629Z,17.40
2022-10-13T15:45:08.235Z,19.20
2022-10-13T15:47:25.654Z,20.25
2022-10-13T15:49:52.743Z,22.38
2022-10-13T15:52:20.707Z,16.88
2022-10-13T15:54:51.319Z,17.67
2022-10-13T15:57:18.595Z,19.85
2022-10-13T15:59:45.575Z,16.80
2022-10-13T16:02:12.576Z,16.90
2022-10-13T16:04:39.661Z,15.43
2022-10-13T16:07:06.680Z,14.55
2022-10-13T16:09:33.761Z,22.70
2022-10-13T16:12:02.115Z,21.02
2022-10-13T16:14:29.260Z,14.80
2022-10-13T16:16:58.129Z,18.73
2022-10-13T16:19:25.124Z,19.17
2022-10-13T16:21:52.177Z,14.85
2022-10-13T16:24:20.491Z,17.10
2022-10-13T16:26:47.445Z,22.13
2022-10-13T16:29:15.427Z,15.23
2022-10-13T16:31:42.410Z,17.85
2022-10-13T16:34:11.047Z,17.30
2022-10-13T16:36:38.039Z,16.88
2022-10-13T16:39:05.042Z,24.50
2022-10-13T16:41:32.047Z,21.05
2022-10-13T16:43:59.073Z,24.35
2022-10-13T16:46:26.170Z,21.38
2022-10-13T16:48:53.356Z,24.70
2022-10-13T16:51:24.421Z,25.67
2022-10-13T16:53:54.639Z,19.73
2022-10-13T16:56:24.452Z,22.85
2022-10-13T16:59:01.759Z,37.90
2022-10-13T17:01:30.407Z,27.25
2022-10-13T17:03:57.903Z,22.27
2022-10-13T17:06:27.549Z,19.15
2022-10-13T17:09:00.428Z,19.95
2022-10-13T17:11:30.998Z,22.00
2022-10-13T17:14:00.495Z,20.45
2022-10-13T17:16:31.309Z,22.08
2022-10-13T17:18:58.835Z,18.83
2022-10-13T17:21:33.740Z,17.50
2022-10-13T17:24:00.799Z,17.40
2022-10-13T17:26:27.959Z,21.58
2022-10-13T17:28:56.185Z,18.50
2022-10-13T17:31:24.839Z,13.35
2022-10-13T17:33:52.519Z,17.67
2022-10-13T17:36:28.966Z,17.45
2022-10-13T17:39:04.228Z,18.85
2022-10-13T17:41:31.906Z,19.48
2022-10-13T17:43:58.927Z,13.10
2022-10-13T17:46:38.425Z,17.52
2022-10-13T17:49:11.415Z,16.48
2022-10-13T17:51:43.676Z,16.60
2022-10-13T17:54:16.145Z,13.00
2022-10-13T17:56:45.184Z,14.85
2022-10-13T17:59:14.124Z,12.90
2022-10-13T18:01:42.610Z,17.23
2022-10-13T18:04:16.566Z,17.92
2022-10-13T18:06:45.068Z,16.42
2022-10-13T18:09:18.417Z,14.50
2022-10-13T18:11:51.206Z,15.82
2022-10-13T18:14:21.495Z,18.30
2022-10-13T18:16:50.676Z,18.92
2022-10-13T18:19:19.485Z,17.33
2022-10-13T18:21:46.780Z,16.75
2022-10-13T18:24:15.320Z,19.73
2022-10-13T18:26:42.416Z,22.42
2022-10-13T18:29:12.224Z,21.92
2022-10-13T18:31:41.509Z,22.00
2022-10-13T18:34:15.982Z,21.30
2022-10-13T18:36:47.330Z,22.75
2022-10-13T18:39:15.523Z,19.77
2022-10-13T18:41:46.065Z,21.00
2022-10-13T18:44:13.866Z,21.17
2022-10-13T18:46:41.689Z,21.80
2022-10-13T18:49:13.728Z,20.20
2022-10-13T18:51:42.309Z,23.98
2022-10-13T18:54:10.728Z,23.45
2022-10-13T18:56:39.878Z,25.38
2022-10-13T18:59:08.427Z,21.42
2022-10-13T19:01:38.083Z,24.08
2022-10-13T19:04:06.450Z,22.70
2022-10-13T19:06:33.664Z,27.90
2022-10-13T19:09:07.281Z,21.55
2022-10-13T19:11:37.585Z,22.30
2022-10-13T19:14:11.396Z,24.38
2022-10-13T19:16:42.280Z,28.30
2022-10-13T19:19:09.771Z,27.75
2022-10-13T19:21:38.603Z,22.75
2022-10-13T19:24:07.886Z,24.23
2022-10-13T19:26:37.083Z,26.15
2022-10-13T19:29:13.491Z,22.33
2022-10-13T19:31:42.343Z,25.42
2022-10-13T19:34:12.296Z,24.73
2022-10-13T19:36:44.671Z,26.42
2022-10-13T19:39:24.147Z,22.80
2022-10-13T19:41:54.359Z,28.75
2022-10-13T19:44:23.786Z,27.23
2022-10-13T19:46:52.307Z,27.90
2022-10-13T19:49:23.100Z,30.58
2022-10-13T19:51:50.490Z,26.23
2022-10-13T19:54:20.479Z,27.48
2022-10-13T19:56:50.262Z,26.80
2022-10-13T19:59:19.735Z,30.08
2022-10-13T20:01:47.594Z,29.15
2022-10-13T20:04:18.412Z,29.38
2022-10-13T20:06:46.263Z,28.08
2022-10-13T20:09:13.444Z,31.02
2022-10-13T20:11:40.819Z,32.75
2022-10-13T20:14:08.926Z,30.60
2022-10-13T20:16:37.834Z,32.53
2022-10-13T20:19:06.902Z,31.88
2022-10-13T20:21:34.016Z,35.08
2022-10-13T20:24:01.013Z,32.38
2022-10-13T20:26:28.151Z,34.33
2022-10-13T20:28:55.251Z,32.75
2022-10-13T20:31:23.093Z,30.23
2022-10-13T20:33:56.310Z,30.88
2022-10-13T20:36:25.756Z,31.02
2022-10-13T20:38:53.380Z,30.77
2022-10-13T20:41:32.611Z,33.05
2022-10-13T20:44:01.286Z,31.75
2022-10-13T20:46:31.038Z,31.75
2022-10-13T20:49:13.798Z,32.58
2022-10-13T20:51:43.138Z,35.72
2022-10-13T20:54:15.070Z,31.10
2022-10-13T20:56:43.562Z,30.42
2022-10-13T20:59:14.748Z,35.38
2022-10-13T21:01:42.577Z,33.78
2022-10-13T21:04:11.337Z,36.17
2022-10-13T21:06:40.771Z,34.80
2022-10-13T21:09:08.941Z,36.85
2022-10-13T21:11:39.612Z,39.08
2022-10-13T21:14:06.955Z,36.80
2022-10-13T21:16:34.678Z,37.10
2022-10-13T21:19:02.992Z,39.22
2022-10-13T21:21:34.450Z,40.05
2022-10-13T21:24:06.564Z,33.25
2022-10-13T21:26:35.108Z,38.35
2022-10-13T21:29:02.591Z,35.83
2022-10-13T21:31:30.617Z,36.60
2022-10-13T21:33:59.748Z,36.83
2022-10-13T21:36:32.421Z,38.60
2022-10-13T21:39:04.704Z,36.40
2022-10-13T21:41:33.100Z,38.73
2022-10-13T21:44:00.029Z,38.80
2022-10-13T21:46:34.339Z,40.90
2022-10-13T21:49:05.331Z,42.03
2022-10-13T21:51:36.284Z,41.78
2022-10-13T21:54:09.467Z,46.17
2022-10-13T21:56:38.062Z,45.10
2022-10-13T21:59:06.015Z,43.40
2022-10-13T22:01:34.218Z,42.42
2022-10-13T22:04:06.266Z,44.42
2022-10-13T22:06:34.574Z,42.50
2022-10-13T22:09:05.022Z,42.20
2022-10-13T22:11:35.083Z,43.17
2022-10-13T22:14:07.856Z,40.22
2022-10-13T22:16:40.448Z,45.75
2022-10-13T22:19:07.623Z,43.17
2022-10-13T22:21:40.787Z,44.03
2022-10-13T22:24:12.762Z,45.97
2022-10-13T22:26:43.166Z,50.05
2022-10-13T22:29:14.600Z,49.90
2022-10-13T22:31:43.494Z,44.78
2022-10-13T22:34:13.020Z,43.10
2022-10-13T22:36:44.855Z,49.83
2022-10-13T22:39:13.485Z,45.55
2022-10-13T22:41:41.183Z,50.38
2022-10-13T22:44:08.262Z,48.05
2022-10-13T22:46:38.220Z,52.15
2022-10-13T22:49:06.779Z,45.53
2022-10-13T22:51:36.682Z,51.30
2022-10-13T22:54:05.591Z,47.88
2022-10-13T22:56:34.739Z,47.55
2022-10-13T22:59:08.284Z,48.13
2022-10-13T23:01:36.529Z,52.30
2022-10-13T23:04:04.159Z,51.92
2022-10-13T23:06:34.692Z,47.35
2022-10-13T23:09:09.386Z,46.35
2022-10-13T23:11:38.829Z,48.35
2022-10-13T23:14:08.411Z,52.67
2022-10-13T23:16:35.579Z,43.72
2022-10-13T23:19:05.835Z,48.30
2022-10-13T23:21:33.107Z,50.90
2022-10-13T23:24:05.749Z,45.30
2022-10-13T23:26:35.012Z,55.10
2022-10-13T23:29:02.744Z,44.92
2022-10-13T23:31:29.984Z,52.80
2022-10-13T23:33:58.610Z,53.92
2022-10-13T23:36:30.215Z,48.90
2022-10-13T23:39:06.676Z,49.72
2022-10-13T23:41:34.556Z,50.38
2022-10-13T23:44:04.416Z,49.65
2022-10-13T23:46:31.615Z,47.88
2022-10-13T23:48:58.610Z,46.45
2022-10-13T23:51:26.470Z,39.05
2022-10-13T23:53:54.415Z,46.50
2022-10-13T23:56:22.400Z,38.97
2022-10-13T23:58:49.457Z,40.28
